Flight Track Log - Related Links

Times and Time Zones

All times are in EDT time to prevent confusion due to time zone crossing. See the N244A flight status page for this flight to view local times or setup timezone preferences in your user account.

Time Position Orientation Groundspeed Altitude Reporting Facility
EDT Latitude Longitude Course Direction KTS MPH feet Rate Location/Type
Wed 12:37:07 PM 40.7500 -74.4333 164° South 172 198 2,200  Level New York TRACON
Wed 12:39:03 PM 40.6456 -74.3950 164° South 220 253 8,000 2,949 Climbing New York Center
Wed 12:40:04 PM 40.6225 -74.4703 248° West 190 219 10,900 2,650 Climbing New York Center
Wed 12:41:03 PM 40.5967 -74.5619 250° West 248 285 13,300 2,874 Climbing New York Center
Wed 12:42:03 PM 40.5258 -74.6261 215° Southwest 269 310 16,600 2,529 Climbing New York Center
Wed 12:43:04 PM 40.4672 -74.6911 220° Southwest 285 328 18,400 2,231 Climbing New York Center
Wed 12:44:04 PM 40.4150 -74.7564 224° Southwest 290 334 21,100 2,224 Climbing New York Center
Wed 12:46:29 PM 40.2803 -74.9117 221° Southwest 278 320 26,000 1,833 Climbing Washington Center
Wed 12:47:27 PM 40.2119 -74.9694 213° Southwest 286 329 27,300 1,576 Climbing Washington Center
Wed 12:48:27 PM 40.1414 -75.0353 216° Southwest 305 351 29,100 1,537 Climbing Washington Center
Wed 12:49:28 PM 40.0647 -75.1061 215° Southwest 310 357 30,400 1,033 Climbing Washington Center
Wed 12:50:29 PM 40.0003 -75.1664 216° Southwest 310 357 31,200 992 Climbing Washington Center
Wed 12:51:29 PM 39.9214 -75.2397 215° Southwest 334 384 32,400 1,271 Climbing Washington Center
Wed 12:52:27 PM 39.8425 -75.3106 215° Southwest 339 390 33,700 1,017 Climbing Washington Center
Wed 12:53:27 PM 39.7614 -75.3783 213° Southwest 346 398 34,400 893 Climbing Washington Center
Wed 12:54:28 PM 39.6844 -75.4514 216° Southwest 351 404 35,500 836 Climbing Washington Center
Wed 12:55:29 PM 39.6053 -75.5214 214° Southwest 351 404 36,100 793 Climbing Washington Center
Wed 12:56:29 PM 39.5239 -75.5917 214° Southwest 351 404 37,100 1,017 Climbing Washington Center
Wed 12:57:27 PM 39.4447 -75.6614 214° Southwest 351 404 38,100 706 Climbing Washington Center
Wed 12:58:28 PM 39.3656 -75.7311 214° Southwest 351 404 38,500 295 Climbing Washington Center
Wed 12:59:29 PM 39.2861 -75.8033 215° Southwest 351 404 38,700 403 Climbing Washington Center
Wed 01:00:27 PM 39.2047 -75.8756 215° Southwest 356 410 39,300 605 Climbing Washington Center
Wed 01:01:28 PM 39.1211 -75.9475 214° Southwest 356 410 39,900 344 Climbing Washington Center
Wed 01:02:29 PM 39.0378 -76.0164 213° Southwest 356 410 40,000 50 Climbing Washington Center
Wed 01:03:27 PM 38.9539 -76.0933 216° Southwest 363 418 40,000  Level Washington Center
Wed 01:04:27 PM 38.8681 -76.1675 214° Southwest 369 425 40,000  Level Washington Center
Wed 01:05:28 PM 38.7719 -76.2439 212° Southwest 390 449 40,000  Level Washington Center
Wed 01:06:29 PM 38.6797 -76.3256 215° Southwest 398 458 40,000  Level Washington Center
Wed 01:07:27 PM 38.5875 -76.4017 213° Southwest 406 467 40,000  Level Washington Center
Wed 01:08:28 PM 38.4953 -76.4856 215° Southwest 406 467 40,000  Level Washington Center
Wed 01:09:29 PM 38.3986 -76.5639 212° Southwest 406 467 40,000  Level Washington Center
Wed 01:10:29 PM 38.3000 -76.6528 215° Southwest 411 473 40,000  Level Washington Center
Wed 01:11:27 PM 38.2033 -76.7331 213° Southwest 411 473 40,000  Level Washington Center
Wed 01:12:27 PM 38.1064 -76.8136 213° Southwest 411 473 40,000  Level Washington Center
Wed 01:13:28 PM 38.0222 -76.8886 215° Southwest 417 480 40,000  Level Washington Center
Wed 01:14:29 PM 37.9256 -76.9658 212° Southwest 417 480 40,000  Level Washington Center
Wed 01:15:29 PM 37.8286 -77.0483 214° Southwest 417 480 40,000  Level Washington Center
Wed 01:16:27 PM 37.7336 -77.1306 214° Southwest 417 480 40,000  Level Washington Center
Wed 01:17:28 PM 37.6347 -77.2097 212° Southwest 422 486 40,000  Level Washington Center
Wed 01:18:29 PM 37.5397 -77.2942 215° Southwest 422 486 40,000  Level Washington Center
Wed 01:19:27 PM 37.4406 -77.3758 213° Southwest 422 486 40,000  Level Washington Center
Wed 01:20:28 PM 37.3411 -77.4569 213° Southwest 422 486 40,000  Level Washington Center
Wed 01:21:28 PM 37.2314 -77.5431 212° Southwest 422 486 40,000  Level Washington Center
Wed 01:22:29 PM 37.1339 -77.6264 214° Southwest 422 486 40,000  Level Washington Center
Wed 01:23:29 PM 37.0367 -77.7019 212° Southwest 422 486 40,000  Level Washington Center
Wed 01:24:27 PM 36.9392 -77.7825 213° Southwest 422 486 40,000  Level Washington Center
Wed 01:25:27 PM 36.8378 -77.8628 212° Southwest 422 486 40,000  Level Washington Center
Wed 01:26:28 PM 36.7422 -77.9428 214° Southwest 422 486 40,000  Level Washington Center
Wed 01:27:29 PM 36.6406 -78.0225 212° Southwest 422 486 40,000  Level Washington Center
Wed 01:28:27 PM 36.5450 -78.1022 214° Southwest 422 486 40,000  Level Washington Center
Wed 01:29:28 PM 36.4581 -78.1719 213° Southwest 416 479 40,000  Level Washington Center
Wed 01:30:29 PM 36.3581 -78.2536 213° Southwest 422 486 40,000  Level Washington Center
Wed 01:31:27 PM 36.2603 -78.3328 213° Southwest 422 486 40,000  Level Washington Center
Wed 01:32:27 PM 36.1564 -78.4114 211° Southwest 428 493 40,000  Level Washington Center
Wed 01:33:28 PM 36.0606 -78.4903 214° Southwest 428 493 40,000  Level Washington Center
Wed 01:34:29 PM 35.9606 -78.5714 213° Southwest 428 493 40,000  Level Washington Center
Wed 01:35:27 PM 35.8583 -78.6494 212° Southwest 428 493 40,000  Level Washington Center
Wed 01:36:28 PM 35.7475 -78.7400 214° Southwest 433 498 40,000  Level Washington Center
Wed 01:37:27 PM 35.6472 -78.8203 213° Southwest 438 504 40,000  Level Washington Center
Wed 01:38:27 PM 35.5428 -78.9003 212° Southwest 443 510 40,000  Level Washington Center
Wed 01:39:28 PM 35.4406 -78.9778 212° Southwest 443 510 40,000  Level Washington Center
Wed 01:40:28 PM 35.3403 -79.0522 211° Southwest 443 510 40,000  Level Washington Center
Wed 01:41:29 PM 35.2378 -79.1319 212° Southwest 443 510 40,000  Level Washington Center
Wed 01:42:27 PM 35.1375 -79.2061 211° Southwest 443 510 40,000  Level Washington Center
Wed 01:43:28 PM 35.0372 -79.2828 212° Southwest 443 510 40,000  Level Washington Center
Wed 01:45:27 PM 34.8281 -79.4406 212° Southwest 439 505 40,000  Level Jacksonville Center
Wed 01:46:27 PM 34.7258 -79.5178 212° Southwest 439 505 40,000  Level Jacksonville Center
Wed 01:47:28 PM 34.6258 -79.5975 213° Southwest 439 505 40,000  Level Jacksonville Center
Wed 01:48:27 PM 34.5194 -79.6747 211° Southwest 439 505 40,000 -50 Level Jacksonville Center
Wed 01:49:27 PM 34.4192 -79.7514 212° Southwest 434 499 39,900 -50 Descending Jacksonville Center
Wed 01:50:27 PM 34.3147 -79.8306 212° Southwest 434 499 39,900 50 Level Jacksonville Center
Wed 01:51:27 PM 34.2078 -79.8994 208° Southwest 434 499 40,000  Climbing Jacksonville Center
Wed 01:52:27 PM 34.1008 -79.9683 208° Southwest 439 505 39,900 -50 Descending Jacksonville Center
Wed 01:53:27 PM 33.9919 -80.0397 209° Southwest 439 505 39,900 50 Level Jacksonville Center
Wed 01:54:27 PM 33.8850 -80.1083 208° Southwest 439 505 40,000 50 Climbing Jacksonville Center
Wed 01:55:27 PM 33.7758 -80.1767 207° Southwest 439 505 40,000 -50 Level Jacksonville Center
Wed 01:56:27 PM 33.6689 -80.2447 208° Southwest 439 505 39,900  Descending Jacksonville Center
Wed 01:57:27 PM 33.5619 -80.3178 210° Southwest 439 505 40,000  Climbing Jacksonville Center
Wed 01:58:27 PM 33.4483 -80.3883 207° Southwest 444 511 39,900  Descending Jacksonville Center
Wed 01:59:28 PM 33.3414 -80.4586 209° Southwest 444 511 40,000 50 Climbing Jacksonville Center
Wed 02:00:27 PM 33.2300 -80.5311 209° Southwest 449 517 40,000  Level Jacksonville Center
Wed 02:01:27 PM 33.1267 -80.5933 207° Southwest 449 517 40,000  Level Jacksonville Center
Wed 02:02:27 PM 33.0175 -80.6631 208° Southwest 449 517 40,000  Level Jacksonville Center
Wed 02:03:27 PM 32.9039 -80.7325 207° Southwest 449 517 40,000  Level Jacksonville Center
Wed 02:04:27 PM 32.7922 -80.7994 207° Southwest 449 517 40,000 -50 Level Jacksonville Center
Wed 02:05:27 PM 32.6806 -80.8686 208° Southwest 449 517 39,900  Descending Jacksonville Center
Wed 02:06:27 PM 32.5669 -80.9403 208° Southwest 449 517 40,000  Climbing Jacksonville Center
Wed 02:07:27 PM 32.4531 -81.0117 208° Southwest 449 517 39,900  Descending Jacksonville Center
Wed 02:08:28 PM 32.3394 -81.0803 207° Southwest 444 511 40,000 50 Climbing Jacksonville Center
Wed 02:09:27 PM 32.2256 -81.1514 208° Southwest 456 525 40,000  Level Jacksonville Center
Wed 02:10:27 PM 32.1136 -81.2197 207° Southwest 456 525 40,000 -50 Level Jacksonville Center
Wed 02:11:28 PM 32.0125 -81.3097 217° Southwest 456 525 39,900  Descending Jacksonville Center
Wed 02:12:28 PM 31.8969 -81.4072 216° Southwest 461 531 40,000 50 Climbing Jacksonville Center
Wed 02:13:28 PM 31.8036 -81.4797 213° Southwest 461 531 40,000  Level Jacksonville Center
Wed 02:14:27 PM 31.6728 -81.5378 201° Southwest 459 528 40,000  Level Jacksonville Center
Wed 02:15:27 PM 31.5625 -81.5736 195° South 459 528 40,000  Level Jacksonville Center
Wed 02:16:27 PM 31.4253 -81.6217 197° South 459 528 40,000 -50 Level Jacksonville Center
Wed 02:17:27 PM 31.3256 -81.6789 206° Southwest 454 522 39,900 -50 Descending Jacksonville Center
Wed 02:18:27 PM 31.2411 -81.7894 228° Southwest 449 517 39,900  Level Jacksonville Center
Wed 02:19:27 PM 31.1667 -81.9069 234° Southwest 444 511 39,900 50 Level Jacksonville Center
Wed 02:20:28 PM 31.0903 -82.0192 232° Southwest 449 517 40,000 50 Climbing Jacksonville Center
Wed 02:21:27 PM 31.0158 -82.1339 233° Southwest 449 517 40,000  Level Jacksonville Center
Wed 02:22:28 PM 30.9331 -82.2581 232° Southwest 449 517 40,000  Level Jacksonville Center
Wed 02:23:28 PM 30.8564 -82.3697 231° Southwest 449 517 40,000  Level Jacksonville Center
Wed 02:24:28 PM 30.7836 -82.4814 233° Southwest 443 510 40,000 -50 Level Jacksonville Center
Wed 02:25:27 PM 30.7089 -82.5931 232° Southwest 443 510 39,900 -50 Descending Jacksonville Center
Wed 02:26:27 PM 30.6297 -82.7092 232° Southwest 448 516 39,900 50 Level Jacksonville Center
Wed 02:27:28 PM 30.5589 -82.8203 234° Southwest 442 509 40,000 50 Climbing Jacksonville Center
Wed 02:28:28 PM 30.4836 -82.9264 231° Southwest 437 503 40,000 -50 Level Jacksonville Center
Wed 02:29:28 PM 30.4064 -83.0394 232° Southwest 442 509 39,900  Descending Jacksonville Center
Wed 02:30:28 PM 30.3311 -83.1525 232° Southwest 447 514 40,000  Climbing Jacksonville Center
Wed 02:31:28 PM 30.2575 -83.2653 233° Southwest 447 514 39,900 -50 Descending Jacksonville Center
Wed 02:32:28 PM 30.1800 -83.3781 232° Southwest 447 514 39,900 -50 Level Jacksonville Center
Wed 02:33:28 PM 30.1022 -83.4906 231° Southwest 447 514 39,800 -350 Descending Jacksonville Center
Wed 02:34:28 PM 30.0244 -83.6050 232° Southwest 447 514 39,200 -300 Descending Jacksonville Center
Wed 02:35:28 PM 29.9425 -83.7122 229° Southwest 452 520 39,200 -151 Level Jacksonville Center
Wed 02:36:27 PM 29.8333 -83.7856 210° Southwest 440 506 38,900 -150 Descending Jacksonville Center
Wed 02:37:28 PM 29.7058 -83.7989 185° South 437 503 38,900  Level Jacksonville Center
Wed 02:38:27 PM 29.5789 -83.7619 166° South 442 509 38,900  Level Jacksonville Center
Wed 02:39:27 PM 29.4517 -83.7203 164° South 447 514 38,900  Level Jacksonville Center
Wed 02:40:27 PM 29.3247 -83.6808 165° South 458 527 38,900  Level Jacksonville Center
Wed 02:41:28 PM 29.1975 -83.6394 164° South 469 540 38,900  Level Jacksonville Center
Wed 02:42:28 PM 29.0706 -83.6006 165° South 469 540 38,900  Level Jacksonville Center
Wed 02:43:28 PM 28.9536 -83.5664 166° South 479 551 38,900  Level Jacksonville Center
Wed 02:44:28 PM 28.8225 -83.5278 166° South 479 551 38,900  Level Jacksonville Center
Wed 02:45:28 PM 28.6953 -83.4889 165° South 479 551 38,900 -559 Level Jacksonville Center
Wed 02:47:52 PM 28.3894 -83.3964 165° South 483 556 37,000 -1,147 Descending Miami Center
Wed 02:48:52 PM 28.2589 -83.3794 173° South 483 556 35,000 -2,050 Descending Miami Center
Wed 02:49:52 PM 28.1300 -83.3672 175° South 478 550 32,900 -2,100 Descending Miami Center
Wed 02:50:52 PM 28.0050 -83.3672 180° South 468 539 30,800 -2,050 Descending Miami Center
Wed 02:51:52 PM 27.8800 -83.3647 179° South 462 532 28,800 -2,050 Descending Miami Center
Wed 02:52:52 PM 27.7569 -83.3622 179° South 452 520 26,700 -2,100 Descending Miami Center
Wed 02:53:52 PM 27.6342 -83.3600 179° South 452 520 24,600 -2,100 Descending Miami Center
Wed 02:54:52 PM 27.5175 -83.3581 179° South 438 504 22,500 -1,800 Descending Miami Center
Wed 02:55:52 PM 27.4131 -83.3125 159° South 411 473 21,000 -800 Descending Miami Center
Wed 02:56:52 PM 27.3547 -83.2156 124° Southeast 366 421 20,900  Descending Miami Center
Wed 02:57:52 PM 27.3006 -83.1217 123° Southeast 357 411 21,000 50 Climbing Miami Center
Wed 02:58:52 PM 27.2419 -83.0250 124° Southeast 362 417 21,000 -600 Level Miami Center
Wed 02:59:52 PM 27.1817 -82.9217 123° Southeast 380 437 19,800 -1,150 Descending Miami Center
Wed 03:00:52 PM 27.1108 -82.8200 128° Southeast 393 452 18,700 -1,050 Descending Miami Center
Wed 03:01:52 PM 27.0178 -82.7500 146° Southeast 393 452 17,700 -1,100 Descending Miami Center
Wed 03:02:52 PM 26.9247 -82.6778 145° Southeast 404 465 16,500 -1,350 Descending Miami Center
Wed 03:03:52 PM 26.8444 -82.5947 137° Southeast 404 465 15,000 -1,450 Descending Miami Center
Wed 03:04:52 PM 26.7744 -82.5192 136° Southeast 370 426 13,600 -1,500 Descending Miami Center
Wed 03:05:52 PM 26.7122 -82.4533 137° Southeast 335 386 12,000 -1,900 Descending Miami Center
Wed 03:06:52 PM 26.6475 -82.4017 144° Southeast 302 348 9,800 -1,750 Descending Miami Center
Wed 03:07:52 PM 26.5758 -82.3656 156° South 257 296 8,500 -1,550 Descending Miami Center
Wed 03:08:52 PM 26.5319 -82.3081 130° Southeast 242 278 6,700 -1,650 Descending Miami Center
Wed 03:09:52 PM 26.4903 -82.2503 129° Southeast 242 278 5,200 -850 Descending Miami Center
Wed 03:10:52 PM 26.4483 -82.1975 132° Southeast 236 272 5,000 -100 Descending Miami Center
Wed 03:11:52 PM 26.3981 -82.1489 139° Southeast 237 273 5,000 -100 Level Miami Center
Wed 03:12:52 PM 26.3325 -82.1158 156° South 251 289 4,800 -850 Descending Miami Center
Wed 03:13:52 PM 26.2667 -82.0850 157° South 257 296 3,300 -1,500 Descending Miami Center
Wed 03:15:00 PM 26.1550 -82.0216 138° Southeast  Level FlightAware Approximate
Wed 03:22:00 PM 26.1524 -81.7756 66° East  Level Estimated
Wed 03:23:00 PM 26.1524 -81.7756 66° East  Level Estimated
Wed 03:24:00 PM 26.1524 -81.7756 66° East  Level Estimated
Wed 03:25:00 PM 26.1524 -81.7756 66° East  Level Estimated
Wed 03:26:00 PM 26.1524 -81.7756 66° East  Level Estimated
Wed 03:27:00 PM 26.1524 -81.7756 66° East  Level Estimated
Wed 03:28:00 PM 26.1524 -81.7756 66° East  Level Estimated
Wed 03:29:00 PM 26.1524 -81.7756 66° East  Level Estimated

Login

Don't have an account? Register now (free) for customized features, flight alerts, and more!